sensor_id;sensor_type;location;lat;lon;timestamp;temperature;humidity
74416;SHT31;62850;42.428;25.618;2022-11-30T00:00:16;8.60;82.75
74416;SHT31;62850;42.428;25.618;2022-11-30T00:02:41;8.65;82.75
74416;SHT31;62850;42.428;25.618;2022-11-30T00:05:07;8.65;82.76
74416;SHT31;62850;42.428;25.618;2022-11-30T00:07:33;8.72;82.69
74416;SHT31;62850;42.428;25.618;2022-11-30T00:09:58;8.56;82.03
74416;SHT31;62850;42.428;25.618;2022-11-30T00:12:24;8.49;81.96
74416;SHT31;62850;42.428;25.618;2022-11-30T00:14:50;8.62;82.35
74416;SHT31;62850;42.428;25.618;2022-11-30T00:17:15;8.58;83.41
74416;SHT31;62850;42.428;25.618;2022-11-30T00:19:42;8.59;83.07
74416;SHT31;62850;42.428;25.618;2022-11-30T00:22:08;8.63;82.69
74416;SHT31;62850;42.428;25.618;2022-11-30T00:24:33;8.62;82.54
74416;SHT31;62850;42.428;25.618;2022-11-30T00:26:59;8.68;82.70
74416;SHT31;62850;42.428;25.618;2022-11-30T00:29:24;8.66;83.23
74416;SHT31;62850;42.428;25.618;2022-11-30T00:31:50;8.58;83.16
74416;SHT31;62850;42.428;25.618;2022-11-30T00:34:15;8.49;83.66
74416;SHT31;62850;42.428;25.618;2022-11-30T00:36:41;8.53;83.61
74416;SHT31;62850;42.428;25.618;2022-11-30T00:39:07;8.59;83.38
74416;SHT31;62850;42.428;25.618;2022-11-30T00:41:32;8.62;83.19
74416;SHT31;62850;42.428;25.618;2022-11-30T00:43:58;8.62;83.05
74416;SHT31;62850;42.428;25.618;2022-11-30T00:46:23;8.63;83.02
74416;SHT31;62850;42.428;25.618;2022-11-30T00:48:49;8.65;82.69
74416;SHT31;62850;42.428;25.618;2022-11-30T00:51:14;8.63;82.48
74416;SHT31;62850;42.428;25.618;2022-11-30T00:53:41;8.59;82.42
74416;SHT31;62850;42.428;25.618;2022-11-30T00:56:07;8.59;82.62
74416;SHT31;62850;42.428;25.618;2022-11-30T00:58:33;8.53;82.21
74416;SHT31;62850;42.428;25.618;2022-11-30T01:00:58;8.48;82.82
74416;SHT31;62850;42.428;25.618;2022-11-30T01:03:24;8.53;82.64
74416;SHT31;62850;42.428;25.618;2022-11-30T01:05:49;8.53;82.63
74416;SHT31;62850;42.428;25.618;2022-11-30T01:08:15;8.52;82.38
74416;SHT31;62850;42.428;25.618;2022-11-30T01:10:42;8.48;83.59
74416;SHT31;62850;42.428;25.618;2022-11-30T01:13:08;8.49;83.54
74416;SHT31;62850;42.428;25.618;2022-11-30T01:15:39;8.53;83.21
74416;SHT31;62850;42.428;25.618;2022-11-30T01:18:05;8.56;83.16
74416;SHT31;62850;42.428;25.618;2022-11-30T01:20:31;8.63;83.25
74416;SHT31;62850;42.428;25.618;2022-11-30T01:22:57;8.62;82.90
74416;SHT31;62850;42.428;25.618;2022-11-30T01:25:23;8.65;82.46
74416;SHT31;62850;42.428;25.618;2022-11-30T01:27:49;8.63;82.68
74416;SHT31;62850;42.428;25.618;2022-11-30T01:30:16;8.69;82.65
74416;SHT31;62850;42.428;25.618;2022-11-30T01:32:41;8.66;82.52
74416;SHT31;62850;42.428;25.618;2022-11-30T01:35:07;8.38;82.35
74416;SHT31;62850;42.428;25.618;2022-11-30T01:37:33;8.48;82.30
74416;SHT31;62850;42.428;25.618;2022-11-30T01:39:59;8.45;82.32
74416;SHT31;62850;42.428;25.618;2022-11-30T01:42:25;8.41;82.77
74416;SHT31;62850;42.428;25.618;2022-11-30T01:44:57;8.30;82.38
74416;SHT31;62850;42.428;25.618;2022-11-30T01:47:34;8.25;82.68
74416;SHT31;62850;42.428;25.618;2022-11-30T01:50:31;8.27;82.38
74416;SHT31;62850;42.428;25.618;2022-11-30T01:52:59;8.20;82.05
74416;SHT31;62850;42.428;25.618;2022-11-30T01:55:29;8.10;82.26
74416;SHT31;62850;42.428;25.618;2022-11-30T01:58:04;8.05;82.43
74416;SHT31;62850;42.428;25.618;2022-11-30T02:00:31;8.05;82.64
74416;SHT31;62850;42.428;25.618;2022-11-30T02:05:23;8.01;82.75
74416;SHT31;62850;42.428;25.618;2022-11-30T02:07:49;8.11;82.33
74416;SHT31;62850;42.428;25.618;2022-11-30T02:10:25;8.05;82.58
74416;SHT31;62850;42.428;25.618;2022-11-30T02:24:05;8.39;83.45
74416;SHT31;62850;42.428;25.618;2022-11-30T02:26:50;8.24;82.80
74416;SHT31;62850;42.428;25.618;2022-11-30T02:29:22;8.31;82.77
74416;SHT31;62850;42.428;25.618;2022-11-30T02:32:01;8.21;82.86
74416;SHT31;62850;42.428;25.618;2022-11-30T02:34:30;8.24;82.60
74416;SHT31;62850;42.428;25.618;2022-11-30T02:36:58;8.30;82.60
74416;SHT31;62850;42.428;25.618;2022-11-30T02:39:24;8.37;82.70
74416;SHT31;62850;42.428;25.618;2022-11-30T02:41:50;8.21;81.17
74416;SHT31;62850;42.428;25.618;2022-11-30T02:44:15;8.37;81.46
74416;SHT31;62850;42.428;25.618;2022-11-30T02:52:04;8.51;81.82
74416;SHT31;62850;42.428;25.618;2022-11-30T02:54:31;8.55;81.63
74416;SHT31;62850;42.428;25.618;2022-11-30T02:56:57;8.62;81.51
74416;SHT31;62850;42.428;25.618;2022-11-30T02:59:23;8.62;81.44
74416;SHT31;62850;42.428;25.618;2022-11-30T03:01:48;8.66;81.17
74416;SHT31;62850;42.428;25.618;2022-11-30T03:04:14;8.72;80.68
74416;SHT31;62850;42.428;25.618;2022-11-30T03:06:39;8.68;80.89
74416;SHT31;62850;42.428;25.618;2022-11-30T03:09:05;8.69;81.46
74416;SHT31;62850;42.428;25.618;2022-11-30T03:11:30;8.65;82.00
74416;SHT31;62850;42.428;25.618;2022-11-30T03:13:56;8.66;82.29
74416;SHT31;62850;42.428;25.618;2022-11-30T03:16:21;8.53;82.70
74416;SHT31;62850;42.428;25.618;2022-11-30T03:18:47;8.46;83.08
74416;SHT31;62850;42.428;25.618;2022-11-30T03:21:12;8.44;83.37
74416;SHT31;62850;42.428;25.618;2022-11-30T03:23:38;8.39;83.48
74416;SHT31;62850;42.428;25.618;2022-11-30T03:26:04;8.31;83.69
74416;SHT31;62850;42.428;25.618;2022-11-30T03:28:30;8.28;83.71
74416;SHT31;62850;42.428;25.618;2022-11-30T03:30:56;8.31;83.89
74416;SHT31;62850;42.428;25.618;2022-11-30T03:33:24;8.35;83.97
74416;SHT31;62850;42.428;25.618;2022-11-30T03:35:58;8.27;84.30
74416;SHT31;62850;42.428;25.618;2022-11-30T03:38:24;8.28;84.23
74416;SHT31;62850;42.428;25.618;2022-11-30T03:40:50;8.34;84.12
74416;SHT31;62850;42.428;25.618;2022-11-30T03:43:23;8.20;84.20
74416;SHT31;62850;42.428;25.618;2022-11-30T03:45:48;8.25;84.27
74416;SHT31;62850;42.428;25.618;2022-11-30T03:48:14;8.24;84.32
74416;SHT31;62850;42.428;25.618;2022-11-30T03:50:39;8.31;84.26
74416;SHT31;62850;42.428;25.618;2022-11-30T03:53:06;8.35;84.13
74416;SHT31;62850;42.428;25.618;2022-11-30T03:55:31;8.25;84.41
74416;SHT31;62850;42.428;25.618;2022-11-30T03:57:57;8.24;84.57
74416;SHT31;62850;42.428;25.618;2022-11-30T04:00:22;8.30;84.42
74416;SHT31;62850;42.428;25.618;2022-11-30T04:02:48;8.25;84.21
74416;SHT31;62850;42.428;25.618;2022-11-30T04:05:13;8.21;84.32
74416;SHT31;62850;42.428;25.618;2022-11-30T04:07:39;8.20;84.37
74416;SHT31;62850;42.428;25.618;2022-11-30T04:10:05;8.24;84.47
74416;SHT31;62850;42.428;25.618;2022-11-30T04:12:31;8.20;84.67
74416;SHT31;62850;42.428;25.618;2022-11-30T04:14:56;8.20;84.80
74416;SHT31;62850;42.428;25.618;2022-11-30T04:17:21;8.18;84.89
74416;SHT31;62850;42.428;25.618;2022-11-30T04:19:47;8.21;85.09
74416;SHT31;62850;42.428;25.618;2022-11-30T04:22:13;8.20;85.06
74416;SHT31;62850;42.428;25.618;2022-11-30T04:24:38;8.05;85.26
74416;SHT31;62850;42.428;25.618;2022-11-30T04:27:03;8.08;85.47
74416;SHT31;62850;42.428;25.618;2022-11-30T04:29:29;8.08;85.38
74416;SHT31;62850;42.428;25.618;2022-11-30T04:31:55;8.10;85.35
74416;SHT31;62850;42.428;25.618;2022-11-30T04:34:20;8.17;85.39
74416;SHT31;62850;42.428;25.618;2022-11-30T04:36:46;8.21;85.25
74416;SHT31;62850;42.428;25.618;2022-11-30T04:39:12;8.18;85.14
74416;SHT31;62850;42.428;25.618;2022-11-30T04:41:38;8.15;85.17
74416;SHT31;62850;42.428;25.618;2022-11-30T04:44:03;8.17;85.02
74416;SHT31;62850;42.428;25.618;2022-11-30T04:46:29;8.17;85.33
74416;SHT31;62850;42.428;25.618;2022-11-30T04:48:54;8.21;85.21
74416;SHT31;62850;42.428;25.618;2022-11-30T04:51:20;8.18;85.03
74416;SHT31;62850;42.428;25.618;2022-11-30T04:53:45;8.25;84.94
74416;SHT31;62850;42.428;25.618;2022-11-30T04:56:11;8.22;84.89
74416;SHT31;62850;42.428;25.618;2022-11-30T04:58:37;8.14;84.83
74416;SHT31;62850;42.428;25.618;2022-11-30T05:01:04;8.17;84.90
74416;SHT31;62850;42.428;25.618;2022-11-30T05:03:29;8.14;84.90
74416;SHT31;62850;42.428;25.618;2022-11-30T05:05:55;8.20;85.14
74416;SHT31;62850;42.428;25.618;2022-11-30T05:08:20;8.11;85.14
74416;SHT31;62850;42.428;25.618;2022-11-30T05:10:50;7.94;85.60
74416;SHT31;62850;42.428;25.618;2022-11-30T05:13:16;7.86;85.94
74416;SHT31;62850;42.428;25.618;2022-11-30T05:15:41;7.98;86.01
74416;SHT31;62850;42.428;25.618;2022-11-30T05:18:07;7.89;86.02
74416;SHT31;62850;42.428;25.618;2022-11-30T05:20:32;7.90;86.22
74416;SHT31;62850;42.428;25.618;2022-11-30T05:22:58;7.84;85.86
74416;SHT31;62850;42.428;25.618;2022-11-30T05:25:23;7.74;85.67
74416;SHT31;62850;42.428;25.618;2022-11-30T05:27:49;7.70;85.24
74416;SHT31;62850;42.428;25.618;2022-11-30T05:30:14;7.66;84.59
74416;SHT31;62850;42.428;25.618;2022-11-30T05:32:40;7.63;84.49
74416;SHT31;62850;42.428;25.618;2022-11-30T05:35:06;7.55;84.05
74416;SHT31;62850;42.428;25.618;2022-11-30T05:37:31;7.36;83.98
74416;SHT31;62850;42.428;25.618;2022-11-30T05:39:57;7.50;84.21
74416;SHT31;62850;42.428;25.618;2022-11-30T05:42:23;7.63;83.92
74416;SHT31;62850;42.428;25.618;2022-11-30T05:44:48;7.67;83.33
74416;SHT31;62850;42.428;25.618;2022-11-30T05:47:14;7.74;83.79
74416;SHT31;62850;42.428;25.618;2022-11-30T05:49:40;7.79;84.35
74416;SHT31;62850;42.428;25.618;2022-11-30T05:52:05;7.89;84.32
74416;SHT31;62850;42.428;25.618;2022-11-30T05:54:32;7.89;84.36
74416;SHT31;62850;42.428;25.618;2022-11-30T05:56:58;7.94;84.46
74416;SHT31;62850;42.428;25.618;2022-11-30T05:59:23;7.86;84.70
74416;SHT31;62850;42.428;25.618;2022-11-30T06:01:52;7.87;84.73
74416;SHT31;62850;42.428;25.618;2022-11-30T06:04:18;7.83;84.63
74416;SHT31;62850;42.428;25.618;2022-11-30T06:06:43;7.74;84.13
74416;SHT31;62850;42.428;25.618;2022-11-30T06:09:09;7.62;83.94
74416;SHT31;62850;42.428;25.618;2022-11-30T06:11:35;7.73;84.34
74416;SHT31;62850;42.428;25.618;2022-11-30T06:14:00;7.74;84.18
74416;SHT31;62850;42.428;25.618;2022-11-30T06:16:26;7.83;84.24
74416;SHT31;62850;42.428;25.618;2022-11-30T06:18:54;7.80;84.19
74416;SHT31;62850;42.428;25.618;2022-11-30T06:21:20;7.79;82.55
74416;SHT31;62850;42.428;25.618;2022-11-30T06:23:45;7.86;82.40
74416;SHT31;62850;42.428;25.618;2022-11-30T06:26:11;7.71;83.82
74416;SHT31;62850;42.428;25.618;2022-11-30T06:28:38;7.79;83.90
74416;SHT31;62850;42.428;25.618;2022-11-30T06:31:05;7.77;83.24
74416;SHT31;62850;42.428;25.618;2022-11-30T06:33:32;7.79;83.18
74416;SHT31;62850;42.428;25.618;2022-11-30T06:35:58;7.74;82.95
74416;SHT31;62850;42.428;25.618;2022-11-30T06:38:23;7.81;83.07
74416;SHT31;62850;42.428;25.618;2022-11-30T06:40:50;7.83;82.69
74416;SHT31;62850;42.428;25.618;2022-11-30T06:43:16;7.81;82.66
74416;SHT31;62850;42.428;25.618;2022-11-30T06:45:43;7.84;82.94
74416;SHT31;62850;42.428;25.618;2022-11-30T06:48:09;7.90;82.73
74416;SHT31;62850;42.428;25.618;2022-11-30T06:50:35;7.94;82.95
74416;SHT31;62850;42.428;25.618;2022-11-30T06:53:01;7.94;83.16
74416;SHT31;62850;42.428;25.618;2022-11-30T06:55:26;7.98;83.07
74416;SHT31;62850;42.428;25.618;2022-11-30T06:57:52;8.02;82.85
74416;SHT31;62850;42.428;25.618;2022-11-30T07:00:17;8.05;82.49
74416;SHT31;62850;42.428;25.618;2022-11-30T07:02:43;8.11;82.08
74416;SHT31;62850;42.428;25.618;2022-11-30T07:05:09;8.15;81.82
74416;SHT31;62850;42.428;25.618;2022-11-30T07:07:34;8.12;81.52
74416;SHT31;62850;42.428;25.618;2022-11-30T07:10:00;8.17;81.88
74416;SHT31;62850;42.428;25.618;2022-11-30T07:12:26;8.17;82.06
74416;SHT31;62850;42.428;25.618;2022-11-30T07:14:51;8.18;82.03
74416;SHT31;62850;42.428;25.618;2022-11-30T07:17:20;8.21;82.06
74416;SHT31;62850;42.428;25.618;2022-11-30T07:19:45;8.15;82.24
74416;SHT31;62850;42.428;25.618;2022-11-30T07:22:11;7.97;82.33
74416;SHT31;62850;42.428;25.618;2022-11-30T07:24:37;8.00;82.24
74416;SHT31;62850;42.428;25.618;2022-11-30T07:27:21;8.04;82.55
74416;SHT31;62850;42.428;25.618;2022-11-30T07:29:46;8.01;82.57
74416;SHT31;62850;42.428;25.618;2022-11-30T07:32:13;8.04;82.58
74416;SHT31;62850;42.428;25.618;2022-11-30T07:34:39;8.00;82.74
74416;SHT31;62850;42.428;25.618;2022-11-30T07:37:04;7.93;82.77
74416;SHT31;62850;42.428;25.618;2022-11-30T07:39:30;7.98;83.09
74416;SHT31;62850;42.428;25.618;2022-11-30T07:41:56;8.08;83.12
74416;SHT31;62850;42.428;25.618;2022-11-30T07:44:21;8.10;83.22
74416;SHT31;62850;42.428;25.618;2022-11-30T07:46:47;7.95;82.06
74416;SHT31;62850;42.428;25.618;2022-11-30T07:49:12;7.84;82.24
74416;SHT31;62850;42.428;25.618;2022-11-30T07:51:38;7.81;82.37
74416;SHT31;62850;42.428;25.618;2022-11-30T07:54:03;7.81;82.78
74416;SHT31;62850;42.428;25.618;2022-11-30T07:56:29;7.93;82.77
74416;SHT31;62850;42.428;25.618;2022-11-30T07:58:58;8.05;82.55
74416;SHT31;62850;42.428;25.618;2022-11-30T08:01:29;8.12;82.44
74416;SHT31;62850;42.428;25.618;2022-11-30T08:03:56;8.21;82.53
74416;SHT31;62850;42.428;25.618;2022-11-30T08:06:26;8.24;82.23
74416;SHT31;62850;42.428;25.618;2022-11-30T08:08:55;8.27;82.23
74416;SHT31;62850;42.428;25.618;2022-11-30T08:11:23;8.30;82.23
74416;SHT31;62850;42.428;25.618;2022-11-30T08:13:49;8.35;81.93
74416;SHT31;62850;42.428;25.618;2022-11-30T08:16:18;8.32;81.75
74416;SHT31;62850;42.428;25.618;2022-11-30T08:18:44;8.35;81.78
74416;SHT31;62850;42.428;25.618;2022-11-30T08:21:12;8.44;81.73
74416;SHT31;62850;42.428;25.618;2022-11-30T08:23:41;8.44;81.89
74416;SHT31;62850;42.428;25.618;2022-11-30T08:26:21;8.46;81.61
74416;SHT31;62850;42.428;25.618;2022-11-30T08:28:49;8.48;81.69
74416;SHT31;62850;42.428;25.618;2022-11-30T08:31:20;8.49;81.50
74416;SHT31;62850;42.428;25.618;2022-11-30T08:33:46;8.55;81.53
74416;SHT31;62850;42.428;25.618;2022-11-30T08:36:14;8.52;81.10
74416;SHT31;62850;42.428;25.618;2022-11-30T08:38:41;8.52;81.37
74416;SHT31;62850;42.428;25.618;2022-11-30T08:41:08;8.55;81.59
74416;SHT31;62850;42.428;25.618;2022-11-30T08:43:34;8.55;81.31
74416;SHT31;62850;42.428;25.618;2022-11-30T08:46:04;8.55;81.30
74416;SHT31;62850;42.428;25.618;2022-11-30T08:48:30;8.56;81.21
74416;SHT31;62850;42.428;25.618;2022-11-30T08:51:04;8.59;81.14
74416;SHT31;62850;42.428;25.618;2022-11-30T08:53:31;8.60;81.04
74416;SHT31;62850;42.428;25.618;2022-11-30T08:55:59;8.58;81.53
74416;SHT31;62850;42.428;25.618;2022-11-30T08:58:26;8.63;81.71
74416;SHT31;62850;42.428;25.618;2022-11-30T09:00:54;8.66;81.42
74416;SHT31;62850;42.428;25.618;2022-11-30T09:03:19;8.66;81.50
74416;SHT31;62850;42.428;25.618;2022-11-30T09:05:45;8.65;81.59
74416;SHT31;62850;42.428;25.618;2022-11-30T09:08:11;8.65;81.72
74416;SHT31;62850;42.428;25.618;2022-11-30T09:10:37;8.73;81.83
74416;SHT31;62850;42.428;25.618;2022-11-30T09:13:02;8.73;81.83
74416;SHT31;62850;42.428;25.618;2022-11-30T09:15:28;8.75;81.64
74416;SHT31;62850;42.428;25.618;2022-11-30T09:17:53;8.75;81.91
74416;SHT31;62850;42.428;25.618;2022-11-30T09:20:19;8.79;81.23
74416;SHT31;62850;42.428;25.618;2022-11-30T09:22:44;8.83;81.33
74416;SHT31;62850;42.428;25.618;2022-11-30T09:25:10;8.82;81.45
74416;SHT31;62850;42.428;25.618;2022-11-30T09:27:36;8.83;81.68
74416;SHT31;62850;42.428;25.618;2022-11-30T09:30:01;8.82;81.84
74416;SHT31;62850;42.428;25.618;2022-11-30T09:32:27;8.86;82.22
74416;SHT31;62850;42.428;25.618;2022-11-30T09:34:54;8.84;81.97
74416;SHT31;62850;42.428;25.618;2022-11-30T09:37:19;8.89;81.59
74416;SHT31;62850;42.428;25.618;2022-11-30T09:39:45;8.91;81.33
74416;SHT31;62850;42.428;25.618;2022-11-30T09:47:20;8.87;81.36
74416;SHT31;62850;42.428;25.618;2022-11-30T09:49:48;8.91;81.31
74416;SHT31;62850;42.428;25.618;2022-11-30T09:52:23;8.94;81.01
74416;SHT31;62850;42.428;25.618;2022-11-30T09:54:50;8.94;80.97
74416;SHT31;62850;42.428;25.618;2022-11-30T09:59:56;8.84;81.76
74416;SHT31;62850;42.428;25.618;2022-11-30T10:02:35;8.89;81.98
74416;SHT31;62850;42.428;25.618;2022-11-30T10:05:05;8.94;81.87
74416;SHT31;62850;42.428;25.618;2022-11-30T10:10:40;8.87;81.42
74416;SHT31;62850;42.428;25.618;2022-11-30T10:26:54;8.73;80.21
74416;SHT31;62850;42.428;25.618;2022-11-30T10:29:34;8.76;80.71
74416;SHT31;62850;42.428;25.618;2022-11-30T10:32:11;8.80;80.88
74416;SHT31;62850;42.428;25.618;2022-11-30T10:34:38;8.86;80.82
74416;SHT31;62850;42.428;25.618;2022-11-30T10:37:20;8.86;81.02
74416;SHT31;62850;42.428;25.618;2022-11-30T10:40:12;8.86;80.56
74416;SHT31;62850;42.428;25.618;2022-11-30T10:45:29;8.93;80.72
74416;SHT31;62850;42.428;25.618;2022-11-30T10:48:11;8.96;81.63
74416;SHT31;62850;42.428;25.618;2022-11-30T10:50:40;8.96;80.94
74416;SHT31;62850;42.428;25.618;2022-11-30T10:53:09;9.00;80.92
74416;SHT31;62850;42.428;25.618;2022-11-30T10:55:41;9.03;81.11
74416;SHT31;62850;42.428;25.618;2022-11-30T10:58:22;9.06;81.37
74416;SHT31;62850;42.428;25.618;2022-11-30T11:01:40;9.06;81.55
74416;SHT31;62850;42.428;25.618;2022-11-30T11:03:45;9.10;82.15
74416;SHT31;62850;42.428;25.618;2022-11-30T11:06:22;9.11;82.31
74416;SHT31;62850;42.428;25.618;2022-11-30T11:08:49;9.06;82.50
74416;SHT31;62850;42.428;25.618;2022-11-30T11:11:32;9.04;82.64
74416;SHT31;62850;42.428;25.618;2022-11-30T11:14:14;9.06;82.66
74416;SHT31;62850;42.428;25.618;2022-11-30T11:17:00;8.94;82.85
74416;SHT31;62850;42.428;25.618;2022-11-30T11:19:40;9.00;82.82
74416;SHT31;62850;42.428;25.618;2022-11-30T11:22:24;9.09;82.76
74416;SHT31;62850;42.428;25.618;2022-11-30T11:24:53;8.97;83.07
74416;SHT31;62850;42.428;25.618;2022-11-30T11:27:29;9.03;82.95
74416;SHT31;62850;42.428;25.618;2022-11-30T11:32:35;9.03;82.87
74416;SHT31;62850;42.428;25.618;2022-11-30T11:35:00;9.09;82.92
74416;SHT31;62850;42.428;25.618;2022-11-30T11:40:02;9.13;82.83
74416;SHT31;62850;42.428;25.618;2022-11-30T11:42:31;9.13;82.78
74416;SHT31;62850;42.428;25.618;2022-11-30T11:44:59;9.14;82.65
74416;SHT31;62850;42.428;25.618;2022-11-30T11:47:42;9.10;82.53
74416;SHT31;62850;42.428;25.618;2022-11-30T11:52:37;9.03;82.76
74416;SHT31;62850;42.428;25.618;2022-11-30T11:55:13;9.00;82.92
74416;SHT31;62850;42.428;25.618;2022-11-30T11:57:53;9.04;82.88
74416;SHT31;62850;42.428;25.618;2022-11-30T12:00:21;8.96;82.48
74416;SHT31;62850;42.428;25.618;2022-11-30T12:02:54;8.99;82.49
74416;SHT31;62850;42.428;25.618;2022-11-30T12:10:39;8.82;82.90
74416;SHT31;62850;42.428;25.618;2022-11-30T12:13:16;8.83;82.95
74416;SHT31;62850;42.428;25.618;2022-11-30T12:15:59;8.77;82.82
74416;SHT31;62850;42.428;25.618;2022-11-30T12:18:43;8.72;82.98
74416;SHT31;62850;42.428;25.618;2022-11-30T12:21:24;8.68;83.05
74416;SHT31;62850;42.428;25.618;2022-11-30T12:24:27;8.66;83.04
74416;SHT31;62850;42.428;25.618;2022-11-30T12:27:01;8.65;82.82
74416;SHT31;62850;42.428;25.618;2022-11-30T12:33:06;8.76;82.32
74416;SHT31;62850;42.428;25.618;2022-11-30T12:38:45;8.63;83.17
74416;SHT31;62850;42.428;25.618;2022-11-30T12:41:38;8.62;83.14
74416;SHT31;62850;42.428;25.618;2022-11-30T12:44:52;8.60;83.78
74416;SHT31;62850;42.428;25.618;2022-11-30T12:52:55;8.68;82.57
74416;SHT31;62850;42.428;25.618;2022-11-30T12:55:27;8.63;82.62
74416;SHT31;62850;42.428;25.618;2022-11-30T12:58:11;8.60;82.70
74416;SHT31;62850;42.428;25.618;2022-11-30T13:03:38;8.68;82.30
74416;SHT31;62850;42.428;25.618;2022-11-30T13:06:14;8.68;82.07
74416;SHT31;62850;42.428;25.618;2022-11-30T13:11:23;8.73;82.12
74416;SHT31;62850;42.428;25.618;2022-11-30T13:13:55;8.70;82.17
74416;SHT31;62850;42.428;25.618;2022-11-30T13:16:22;8.72;82.09
74416;SHT31;62850;42.428;25.618;2022-11-30T13:18:50;8.66;82.42
74416;SHT31;62850;42.428;25.618;2022-11-30T13:21:33;8.70;82.53
74416;SHT31;62850;42.428;25.618;2022-11-30T13:24:13;8.72;82.30
74416;SHT31;62850;42.428;25.618;2022-11-30T13:32:08;8.72;82.28
74416;SHT31;62850;42.428;25.618;2022-11-30T13:34:35;8.68;82.29
74416;SHT31;62850;42.428;25.618;2022-11-30T13:37:17;8.65;82.67
74416;SHT31;62850;42.428;25.618;2022-11-30T13:39:55;8.63;82.50
74416;SHT31;62850;42.428;25.618;2022-11-30T13:45:16;8.58;82.25
74416;SHT31;62850;42.428;25.618;2022-11-30T13:47:50;8.52;82.37
74416;SHT31;62850;42.428;25.618;2022-11-30T13:50:33;8.42;82.45
74416;SHT31;62850;42.428;25.618;2022-11-30T13:53:22;8.28;82.53
74416;SHT31;62850;42.428;25.618;2022-11-30T13:58:15;8.37;82.27
74416;SHT31;62850;42.428;25.618;2022-11-30T14:05:49;8.31;82.19
74416;SHT31;62850;42.428;25.618;2022-11-30T14:08:29;8.12;81.99
74416;SHT31;62850;42.428;25.618;2022-11-30T14:17:02;8.02;81.93
74416;SHT31;62850;42.428;25.618;2022-11-30T14:19:28;7.81;82.04
74416;SHT31;62850;42.428;25.618;2022-11-30T14:21:55;7.93;82.65
74416;SHT31;62850;42.428;25.618;2022-11-30T14:24:22;7.95;81.73
74416;SHT31;62850;42.428;25.618;2022-11-30T14:26:49;8.02;81.92
74416;SHT31;62850;42.428;25.618;2022-11-30T14:29:20;8.14;82.62
74416;SHT31;62850;42.428;25.618;2022-11-30T14:31:56;8.22;82.40
74416;SHT31;62850;42.428;25.618;2022-11-30T14:34:36;8.15;80.14
74416;SHT31;62850;42.428;25.618;2022-11-30T14:37:12;8.05;80.46
74416;SHT31;62850;42.428;25.618;2022-11-30T14:39:45;7.83;80.06
74416;SHT31;62850;42.428;25.618;2022-11-30T14:42:19;7.69;80.63
74416;SHT31;62850;42.428;25.618;2022-11-30T14:44:46;7.67;81.05
74416;SHT31;62850;42.428;25.618;2022-11-30T14:47:20;7.63;81.33
74416;SHT31;62850;42.428;25.618;2022-11-30T14:49:47;7.71;81.81
74416;SHT31;62850;42.428;25.618;2022-11-30T14:52:44;7.79;81.77
74416;SHT31;62850;42.428;25.618;2022-11-30T14:58:33;7.81;81.48
74416;SHT31;62850;42.428;25.618;2022-11-30T15:01:02;7.83;81.55
74416;SHT31;62850;42.428;25.618;2022-11-30T15:03:38;7.76;82.44
74416;SHT31;62850;42.428;25.618;2022-11-30T15:06:04;7.83;82.16
74416;SHT31;62850;42.428;25.618;2022-11-30T15:08:39;7.90;81.76
74416;SHT31;62850;42.428;25.618;2022-11-30T15:11:09;7.95;81.46
74416;SHT31;62850;42.428;25.618;2022-11-30T15:13:44;7.94;82.43
74416;SHT31;62850;42.428;25.618;2022-11-30T15:18:47;8.10;81.99
74416;SHT31;62850;42.428;25.618;2022-11-30T15:21:25;8.12;82.35
74416;SHT31;62850;42.428;25.618;2022-11-30T15:23:52;8.11;82.03
74416;SHT31;62850;42.428;25.618;2022-11-30T15:29:03;8.11;81.63
74416;SHT31;62850;42.428;25.618;2022-11-30T15:31:35;8.02;81.88
74416;SHT31;62850;42.428;25.618;2022-11-30T15:34:02;7.97;81.54
74416;SHT31;62850;42.428;25.618;2022-11-30T15:36:36;7.95;82.45
74416;SHT31;62850;42.428;25.618;2022-11-30T15:39:04;7.97;82.05
74416;SHT31;62850;42.428;25.618;2022-11-30T15:41:31;7.94;81.88
74416;SHT31;62850;42.428;25.618;2022-11-30T15:43:57;7.90;81.80
74416;SHT31;62850;42.428;25.618;2022-11-30T15:46:35;7.79;82.34
74416;SHT31;62850;42.428;25.618;2022-11-30T15:49:22;7.73;82.62
74416;SHT31;62850;42.428;25.618;2022-11-30T15:52:18;7.77;83.06
74416;SHT31;62850;42.428;25.618;2022-11-30T15:54:54;7.52;82.74
74416;SHT31;62850;42.428;25.618;2022-11-30T15:57:25;7.60;82.73
74416;SHT31;62850;42.428;25.618;2022-11-30T16:02:32;7.33;84.47
74416;SHT31;62850;42.428;25.618;2022-11-30T16:07:55;7.48;84.19
74416;SHT31;62850;42.428;25.618;2022-11-30T16:10:35;7.55;84.45
74416;SHT31;62850;42.428;25.618;2022-11-30T16:13:01;7.59;84.38
74416;SHT31;62850;42.428;25.618;2022-11-30T16:15:32;7.62;84.27
74416;SHT31;62850;42.428;25.618;2022-11-30T16:20:32;7.77;83.50
74416;SHT31;62850;42.428;25.618;2022-11-30T16:22:58;7.84;83.24
74416;SHT31;62850;42.428;25.618;2022-11-30T16:25:24;7.89;83.25
74416;SHT31;62850;42.428;25.618;2022-11-30T16:27:50;7.94;83.17
74416;SHT31;62850;42.428;25.618;2022-11-30T16:30:20;8.02;82.76
74416;SHT31;62850;42.428;25.618;2022-11-30T16:32:47;7.97;82.54
74416;SHT31;62850;42.428;25.618;2022-11-30T16:35:21;7.98;82.13
74416;SHT31;62850;42.428;25.618;2022-11-30T16:37:48;8.00;81.36
74416;SHT31;62850;42.428;25.618;2022-11-30T16:40:14;7.94;80.69
74416;SHT31;62850;42.428;25.618;2022-11-30T16:42:39;7.86;81.33
74416;SHT31;62850;42.428;25.618;2022-11-30T16:45:13;7.89;81.41
74416;SHT31;62850;42.428;25.618;2022-11-30T16:47:40;7.91;81.82
74416;SHT31;62850;42.428;25.618;2022-11-30T16:50:07;7.97;82.30
74416;SHT31;62850;42.428;25.618;2022-11-30T16:52:33;8.01;82.34
74416;SHT31;62850;42.428;25.618;2022-11-30T16:54:58;8.00;82.69
74416;SHT31;62850;42.428;25.618;2022-11-30T16:57:24;7.94;82.76
74416;SHT31;62850;42.428;25.618;2022-11-30T16:59:49;7.95;82.66
74416;SHT31;62850;42.428;25.618;2022-11-30T17:02:19;7.98;82.62
74416;SHT31;62850;42.428;25.618;2022-11-30T17:04:46;8.00;82.32
74416;SHT31;62850;42.428;25.618;2022-11-30T17:07:12;7.98;82.15
74416;SHT31;62850;42.428;25.618;2022-11-30T17:09:38;7.98;82.24
74416;SHT31;62850;42.428;25.618;2022-11-30T17:12:03;7.94;82.20
74416;SHT31;62850;42.428;25.618;2022-11-30T17:14:29;7.95;82.13
74416;SHT31;62850;42.428;25.618;2022-11-30T17:16:54;7.95;82.21
74416;SHT31;62850;42.428;25.618;2022-11-30T17:19:20;7.98;82.07
74416;SHT31;62850;42.428;25.618;2022-11-30T17:21:45;7.97;82.19
74416;SHT31;62850;42.428;25.618;2022-11-30T17:24:13;7.98;82.22
74416;SHT31;62850;42.428;25.618;2022-11-30T17:26:39;8.02;81.93
74416;SHT31;62850;42.428;25.618;2022-11-30T17:29:05;8.04;81.21
74416;SHT31;62850;42.428;25.618;2022-11-30T17:31:30;7.94;81.28
74416;SHT31;62850;42.428;25.618;2022-11-30T17:33:57;7.97;81.43
74416;SHT31;62850;42.428;25.618;2022-11-30T17:36:22;7.98;81.85